Time;durP1;ratioP1;P1;durP2;ratioP2;P2;SDS_P1;SDS_P2;PMS_P1;PMS_P2;Temp;Humidity;BMP_temperature;BMP_pressure;BME280_temperature;BME280_humidity;BME280_pressure;Samples;Min_cycle;Max_cycle;Signal;HPM_P1;HPM_P2
2022/07/17 00:02:03;;;;;;;;;;;;;;;23.53;53.18;99583.78;5016551;28;20389;-91
2022/07/17 00:04:29;;;;;;;;;;;;;;;23.48;52.97;99586.00;5000421;28;20012;-90
2022/07/17 00:06:54;;;;;;;;;;;;;;;23.47;53.28;99579.69;5016660;28;19913;-90
2022/07/17 00:09:19;;;;;;;;;;;;;;;23.44;51.45;99585.09;5016804;28;19913;-90
2022/07/17 00:11:45;;;;;;;;;;;;;;;23.47;51.12;99579.69;5016193;28;19921;-91
2022/07/17 00:14:10;;;;;;;;;;;;;;;23.52;50.38;99584.94;4999709;28;20452;-92
2022/07/17 00:16:35;;;;;;;;;;;;;;;23.53;50.25;99583.78;5000184;28;19913;-90
2022/07/17 00:19:01;;;;;;;;;;;;;;;23.41;52.14;99589.34;5000162;28;19913;-90
2022/07/17 00:21:26;;;;;;;;;;;;;;;23.33;51.63;99582.03;5034589;28;20334;-90
2022/07/17 00:23:52;;;;;;;;;;;;;;;23.28;51.53;99583.06;5016411;28;19925;-89
2022/07/17 00:26:17;;;;;;;;;;;;;;;23.28;52.50;99585.03;5000460;28;19975;-90
2022/07/17 00:28:42;;;;;;;;;;;;;;;23.20;53.00;99575.75;5000738;28;19913;-90
2022/07/17 00:31:08;;;;;;;;;;;;;;;23.18;53.25;99575.34;5016563;28;19971;-90
2022/07/17 00:33:33;;;;;;;;;;;;;;;23.09;54.51;99571.91;5016008;28;19917;-90
2022/07/17 00:35:58;;;;;;;;;;;;;;;23.00;55.39;99574.78;4999792;28;19971;-90
2022/07/17 00:38:24;;;;;;;;;;;;;;;22.94;55.32;99570.66;4999738;28;19913;-90
2022/07/17 00:40:49;;;;;;;;;;;;;;;22.85;55.33;99573.56;4999467;28;19913;-90
2022/07/17 00:43:14;;;;;;;;;;;;;;;22.82;55.31;99574.22;4999932;28;20381;-89
2022/07/17 00:45:42;;;;;;;;;;;;;;;22.83;54.77;99575.84;4999447;28;19924;-89
2022/07/17 00:48:09;;;;;;;;;;;;;;;22.82;54.40;99574.22;5000024;28;19913;-89
2022/07/17 00:50:35;;;;;;;;;;;;;;;22.77;54.71;99582.72;4999657;28;19920;-90
2022/07/17 00:53:01;;;;;;;;;;;;;;;22.75;54.33;99588.53;5015760;28;20295;-90
2022/07/17 00:55:26;;;;;;;;;;;;;;;22.70;54.92;99579.72;4999527;28;19917;-90
2022/07/17 00:57:54;;;;;;;;;;;;;;;22.72;54.23;99588.44;4999410;28;19924;-89
2022/07/17 01:00:19;;;;;;;;;;;;;;;22.77;54.29;99593.69;5016121;28;19939;-89
2022/07/17 01:02:45;;;;;;;;;;;;;;;22.71;54.64;99586.84;5015868;28;19912;-90
2022/07/17 01:05:10;;;;;;;;;;;;;;;22.67;54.66;99594.16;5015803;28;20371;-91
2022/07/17 01:07:36;;;;;;;;;;;;;;;22.63;54.59;99596.00;4999572;28;20007;-90
2022/07/17 01:10:04;;;;;;;;;;;;;;;22.59;54.15;99588.44;4999344;28;19996;-90
2022/07/17 01:12:29;;;;;;;;;;;;;;;22.72;52.39;99591.16;4999517;28;19943;-91
2022/07/17 01:14:55;;;;;;;;;;;;;;;22.68;54.48;99591.09;5001573;28;20016;-91
2022/07/17 01:17:20;;;;;;;;;;;;;;;22.59;55.00;99590.38;5003235;28;20276;-90
2022/07/17 01:19:46;;;;;;;;;;;;;;;22.47;55.36;99593.91;5003351;28;19975;-91
2022/07/17 01:22:11;;;;;;;;;;;;;;;22.47;55.50;99593.13;5003580;28;20291;-91
2022/07/17 01:24:42;;;;;;;;;;;;;;;22.45;55.45;99595.41;5003073;28;19983;-90
2022/07/17 01:27:07;;;;;;;;;;;;;;;22.38;55.47;99602.25;5003428;28;19913;-91
2022/07/17 01:29:32;;;;;;;;;;;;;;;22.26;55.88;99602.25;5003360;28;19960;-90
2022/07/17 01:31:58;;;;;;;;;;;;;;;22.16;56.25;99591.69;5003681;28;19967;-90
2022/07/17 01:34:23;;;;;;;;;;;;;;;22.19;55.80;99593.78;5002948;28;19917;-90
2022/07/17 01:36:48;;;;;;;;;;;;;;;22.14;56.21;99588.50;5003234;28;19914;-90
2022/07/17 01:39:13;;;;;;;;;;;;;;;22.09;56.05;99594.22;5003130;28;19913;-90
2022/07/17 01:41:39;;;;;;;;;;;;;;;22.07;55.69;99600.03;5002242;28;19968;-91
2022/07/17 01:44:06;;;;;;;;;;;;;;;22.04;55.53;99595.25;5002693;28;19923;-90
2022/07/17 01:46:31;;;;;;;;;;;;;;;21.93;55.85;99597.59;5002844;28;19949;-90
2022/07/17 01:48:56;;;;;;;;;;;;;;;22.05;55.97;99596.03;5002719;28;19948;-91
2022/07/17 01:51:22;;;;;;;;;;;;;;;21.98;55.54;99596.59;5002603;28;19944;-91
2022/07/17 01:53:47;;;;;;;;;;;;;;;21.86;55.92;99591.88;5002836;28;19913;-90
2022/07/17 01:56:12;;;;;;;;;;;;;;;21.84;56.24;99593.34;5002609;28;19979;-90
2022/07/17 01:58:37;;;;;;;;;;;;;;;21.82;56.36;99595.63;5003070;28;19968;-90
2022/07/17 02:01:03;;;;;;;;;;;;;;;21.72;56.70;99596.84;5003151;28;19917;-90
2022/07/17 02:03:28;;;;;;;;;;;;;;;21.66;56.77;99589.97;5018823;28;19913;-90
2022/07/17 02:05:53;;;;;;;;;;;;;;;21.67;56.53;99597.88;5002772;28;19913;-90
2022/07/17 02:08:19;;;;;;;;;;;;;;;21.69;56.77;99597.53;5003576;28;19913;-92
2022/07/17 02:10:44;;;;;;;;;;;;;;;21.68;56.54;99598.66;5002442;28;19913;-90
2022/07/17 02:13:09;;;;;;;;;;;;;;;21.60;57.19;99594.84;5001888;28;19921;-89
2022/07/17 02:15:34;;;;;;;;;;;;;;;21.57;57.11;99598.28;5002034;28;20367;-91
2022/07/17 02:18:00;;;;;;;;;;;;;;;21.56;56.92;99604.88;5002275;28;19913;-91
2022/07/17 02:20:25;;;;;;;;;;;;;;;21.54;57.21;99607.16;5002344;28;19913;-90
2022/07/17 02:22:50;;;;;;;;;;;;;;;21.53;57.05;99609.13;5002284;28;19913;-90
2022/07/17 02:25:16;;;;;;;;;;;;;;;21.49;57.21;99608.19;5001208;28;19917;-90
2022/07/17 02:27:41;;;;;;;;;;;;;;;21.45;57.05;99612.72;5001145;28;20334;-90
2022/07/17 02:30:16;;;;;;;;;;;;;;;21.46;57.04;99610.78;5018008;28;20421;-90
2022/07/17 02:32:41;;;;;;;;;;;;;;;21.46;57.43;99622.56;5001683;28;19920;-90
2022/07/17 02:35:07;;;;;;;;;;;;;;;21.41;57.05;99622.72;5001437;28;19913;-90
2022/07/17 02:37:32;;;;;;;;;;;;;;;21.39;57.44;99628.56;5001788;28;19921;-90
2022/07/17 02:39:58;;;;;;;;;;;;;;;21.41;56.85;99622.72;5001607;28;19967;-90
2022/07/17 02:42:24;;;;;;;;;;;;;;;21.40;57.33;99618.38;5001550;28;19921;-91
2022/07/17 02:44:50;;;;;;;;;;;;;;;21.37;57.41;99621.78;5002143;28;19960;-90
2022/07/17 02:47:22;;;;;;;;;;;;;;;21.36;57.26;99629.22;5001452;28;19963;-90
2022/07/17 02:49:47;;;;;;;;;;;;;;;21.35;57.75;99624.88;5018185;28;20379;-90
2022/07/17 02:52:13;;;;;;;;;;;;;;;21.35;57.48;99626.78;5001219;28;19917;-90
2022/07/17 02:54:38;;;;;;;;;;;;;;;21.32;57.54;99639.22;5001313;28;19916;-90
2022/07/17 02:57:03;;;;;;;;;;;;;;;21.34;57.36;99638.91;5001683;28;19917;-90
2022/07/17 02:59:29;;;;;;;;;;;;;;;21.32;57.57;99635.69;5001475;28;20023;-90
2022/07/17 03:01:54;;;;;;;;;;;;;;;21.33;57.08;99646.31;5001421;28;19913;-90
2022/07/17 03:04:20;;;;;;;;;;;;;;;21.23;57.98;99641.25;5001241;28;19924;-90
2022/07/17 03:06:45;;;;;;;;;;;;;;;21.24;57.29;99637.34;5017930;28;19913;-90
2022/07/17 03:09:10;;;;;;;;;;;;;;;21.15;57.13;99645.63;5001634;28;19917;-90
2022/07/17 03:11:36;;;;;;;;;;;;;;;21.10;57.51;99640.34;5017553;28;19990;-90
2022/07/17 03:14:01;;;;;;;;;;;;;;;21.02;57.70;99641.19;5001444;28;19913;-90
2022/07/17 03:16:26;;;;;;;;;;;;;;;21.04;57.63;99641.66;5017509;28;19913;-90
2022/07/17 03:18:51;;;;;;;;;;;;;;;21.05;57.78;99637.81;5000929;28;20390;-91
2022/07/17 03:21:17;;;;;;;;;;;;;;;21.10;57.94;99645.81;5017237;28;19991;-91
2022/07/17 03:23:42;;;;;;;;;;;;;;;21.14;57.76;99640.50;5017331;28;19971;-91
2022/07/17 03:26:07;;;;;;;;;;;;;;;21.13;57.35;99645.16;5017167;28;19913;-91
2022/07/17 03:28:33;;;;;;;;;;;;;;;21.25;57.29;99638.16;5017914;28;19927;-91
2022/07/17 03:30:58;;;;;;;;;;;;;;;21.30;57.18;99643.44;5016798;28;19936;-90
2022/07/17 03:33:23;;;;;;;;;;;;;;;21.33;56.77;99642.75;5000485;28;19960;-91
2022/07/17 03:35:48;;;;;;;;;;;;;;;21.32;56.88;99644.72;5001397;28;20435;-90
2022/07/17 03:38:14;;;;;;;;;;;;;;;21.39;56.13;99658.69;5000295;28;19913;-90
2022/07/17 03:40:39;;;;;;;;;;;;;;;21.45;54.45;99656.56;5000303;28;19913;-90
2022/07/17 03:43:04;;;;;;;;;;;;;;;21.56;52.14;99648.72;5000473;28;19913;-89
2022/07/17 03:45:30;;;;;;;;;;;;;;;21.76;51.35;99656.13;5000539;28;19917;-90
2022/07/17 03:47:55;;;;;;;;;;;;;;;21.97;52.58;99649.81;5000920;28;20371;-90
2022/07/17 03:50:20;;;;;;;;;;;;;;;22.02;52.97;99665.25;5000348;28;19983;-90
2022/07/17 03:52:45;;;;;;;;;;;;;;;22.05;52.36;99656.38;5000435;28;19920;-90
2022/07/17 03:55:11;;;;;;;;;;;;;;;22.09;52.19;99647.09;5000404;28;19924;-91
2022/07/17 03:57:36;;;;;;;;;;;;;;;22.10;51.65;99648.72;5016545;28;19960;-91
2022/07/17 04:00:02;;;;;;;;;;;;;;;22.18;51.31;99657.97;4999833;28;19916;-92
2022/07/17 04:02:27;;;;;;;;;;;;;;;22.29;50.69;99661.16;5000322;28;19914;-90
2022/07/17 04:04:52;;;;;;;;;;;;;;;22.26;50.83;99659.84;4999991;28;19945;-89
2022/07/17 04:07:27;;;;;;;;;;;;;;;22.31;46.71;99667.09;5016320;28;20342;-89
2022/07/17 04:09:55;;;;;;;;;;;;;;;22.43;45.21;99674.53;5017573;28;20011;-93
2022/07/17 04:12:21;;;;;;;;;;;;;;;22.55;44.10;99680.03;4997030;28;19929;-92
2022/07/17 04:14:46;;;;;;;;;;;;;;;22.60;43.88;99679.81;5012656;28;19914;-90
2022/07/17 04:17:13;;;;;;;;;;;;;;;22.74;43.45;99683.03;5012975;28;20378;-90
2022/07/17 04:19:39;;;;;;;;;;;;;;;22.73;44.06;99686.91;5013086;28;19945;-90
2022/07/17 04:22:04;;;;;;;;;;;;;;;22.71;43.56;99691.16;4996473;28;19955;-90
2022/07/17 04:24:29;;;;;;;;;;;;;;;22.83;43.24;99690.34;4997427;28;20020;-90
2022/07/17 04:26:54;;;;;;;;;;;;;;;22.86;43.31;99698.69;5013281;28;19913;-90
2022/07/17 04:29:20;;;;;;;;;;;;;;;22.94;43.24;99703.28;4996186;28;19913;-91
2022/07/17 04:31:45;;;;;;;;;;;;;;;22.97;43.57;99708.09;4996557;28;19956;-90
2022/07/17 04:34:10;;;;;;;;;;;;;;;23.06;42.94;99696.22;4996421;28;19917;-90
2022/07/17 04:36:35;;;;;;;;;;;;;;;23.09;43.10;99696.31;4996838;28;19921;-91
2022/07/17 04:39:01;;;;;;;;;;;;;;;23.15;42.22;99702.38;4996274;28;19956;-90
2022/07/17 04:41:26;;;;;;;;;;;;;;;23.19;42.94;99701.34;4996470;28;19913;-90
2022/07/17 04:43:52;;;;;;;;;;;;;;;23.24;41.60;99711.28;5012675;28;20311;-90
2022/07/17 04:46:17;;;;;;;;;;;;;;;23.20;42.39;99713.13;4996046;28;20071;-90
2022/07/17 04:48:42;;;;;;;;;;;;;;;23.27;41.60;99721.59;4995407;28;20065;-91
2022/07/17 04:51:08;;;;;;;;;;;;;;;23.33;41.56;99724.94;4996429;28;19913;-90
2022/07/17 04:53:33;;;;;;;;;;;;;;;23.33;41.75;99728.47;4996039;28;19925;-90
2022/07/17 04:55:59;;;;;;;;;;;;;;;23.43;41.64;99732.69;4995943;28;19917;-90
2022/07/17 04:58:24;;;;;;;;;;;;;;;23.43;41.85;99735.44;4996231;28;20311;-90
2022/07/17 05:00:49;;;;;;;;;;;;;;;23.56;41.64;99730.72;5013296;28;19913;-91
2022/07/17 05:03:14;;;;;;;;;;;;;;;23.67;40.55;99734.59;4996280;28;19968;-91
2022/07/17 05:05:40;;;;;;;;;;;;;;;23.68;40.51;99741.69;4996593;28;20363;-90
2022/07/17 05:08:05;;;;;;;;;;;;;;;23.76;40.29;99737.19;4995838;28;19988;-91
2022/07/17 05:10:30;;;;;;;;;;;;;;;23.79;39.57;99736.53;4996105;28;20016;-90
2022/07/17 05:12:56;;;;;;;;;;;;;;;23.89;40.55;99738.00;4995790;28;19922;-90
2022/07/17 05:15:21;;;;;;;;;;;;;;;23.85;40.17;99737.91;5012604;28;20021;-91
2022/07/17 05:17:46;;;;;;;;;;;;;;;23.94;39.06;99744.03;4995854;28;19917;-89
2022/07/17 05:20:12;;;;;;;;;;;;;;;23.99;38.93;99746.56;4995791;28;19913;-91
2022/07/17 05:22:37;;;;;;;;;;;;;;;24.05;39.09;99749.03;4997428;28;20418;-90
2022/07/17 05:25:02;;;;;;;;;;;;;;;24.10;38.59;99752.34;4997701;28;19971;-90
2022/07/17 05:27:28;;;;;;;;;;;;;;;24.15;38.96;99751.31;5013413;28;19913;-91
2022/07/17 05:29:54;;;;;;;;;;;;;;;24.20;38.74;99753.81;4997923;28;19917;-91
2022/07/17 05:32:19;;;;;;;;;;;;;;;24.27;37.71;99766.97;5012144;28;20023;-91
2022/07/17 05:34:45;;;;;;;;;;;;;;;24.30;38.69;99772.56;4995886;28;19968;-90
2022/07/17 05:37:10;;;;;;;;;;;;;;;24.35;37.37;99764.06;4995341;28;20375;-90
2022/07/17 05:39:35;;;;;;;;;;;;;;;24.40;37.54;99772.06;4995363;28;19914;-89
2022/07/17 05:42:01;;;;;;;;;;;;;;;24.43;37.82;99758.75;5012066;28;20272;-91
2022/07/17 05:44:26;;;;;;;;;;;;;;;24.50;37.46;99761.72;4995539;28;19967;-90
2022/07/17 05:46:51;;;;;;;;;;;;;;;24.50;37.84;99754.25;4995602;28;19918;-90
2022/07/17 05:49:16;;;;;;;;;;;;;;;24.46;37.98;99758.03;4995863;28;19921;-90
2022/07/17 05:51:42;;;;;;;;;;;;;;;24.55;38.31;99758.69;5011679;28;19953;-89
2022/07/17 05:54:07;;;;;;;;;;;;;;;24.61;38.03;99760.03;4995252;28;19970;-90
2022/07/17 05:56:32;;;;;;;;;;;;;;;24.65;38.75;99766.44;4995563;28;19920;-91
2022/07/17 05:58:57;;;;;;;;;;;;;;;24.71;38.97;99765.03;4998835;28;19921;-91
2022/07/17 06:01:23;;;;;;;;;;;;;;;24.78;39.44;99765.22;4997558;28;19987;-90
2022/07/17 06:03:48;;;;;;;;;;;;;;;24.87;39.95;99769.75;4999063;28;19921;-90
2022/07/17 06:06:13;;;;;;;;;;;;;;;24.86;40.84;99765.38;5015298;28;19972;-91
2022/07/17 06:08:38;;;;;;;;;;;;;;;24.96;40.27;99767.59;4998845;28;19979;-89
2022/07/17 06:11:04;;;;;;;;;;;;;;;25.00;40.75;99769.28;4998386;28;19920;-90
2022/07/17 06:13:29;;;;;;;;;;;;;;;24.88;41.59;99763.06;4998942;28;19980;-90
2022/07/17 06:15:58;;;;;;;;;;;;;;;25.00;41.77;99769.28;4998686;28;20395;-90
2022/07/17 06:18:24;;;;;;;;;;;;;;;25.05;41.87;99765.50;4999049;28;19917;-89
2022/07/17 06:20:49;;;;;;;;;;;;;;;25.11;42.17;99761.31;5015027;28;19920;-89
2022/07/17 06:23:15;;;;;;;;;;;;;;;25.09;42.38;99760.88;4998718;28;20008;-90
2022/07/17 06:25:40;;;;;;;;;;;;;;;25.18;41.81;99758.72;4998497;28;19984;-91
2022/07/17 06:28:06;;;;;;;;;;;;;;;25.20;41.52;99769.38;4998774;28;19968;-89
2022/07/17 06:30:31;;;;;;;;;;;;;;;25.26;41.01;99764.44;4998331;28;19949;-90
2022/07/17 06:32:56;;;;;;;;;;;;;;;25.26;40.57;99773.50;4998073;28;19914;-89
2022/07/17 06:35:22;;;;;;;;;;;;;;;25.20;40.42;99764.69;4998606;28;19913;-89
2022/07/17 06:37:47;;;;;;;;;;;;;;;25.20;40.66;99764.69;5014567;28;19913;-89
2022/07/17 06:40:12;;;;;;;;;;;;;;;25.32;40.82;99755.53;4998117;28;20380;-91
2022/07/17 06:42:37;;;;;;;;;;;;;;;25.44;40.72;99759.31;4998548;28;19937;-90
2022/07/17 06:45:03;;;;;;;;;;;;;;;25.57;40.56;99763.56;4998525;28;19925;-91
2022/07/17 06:47:28;;;;;;;;;;;;;;;25.60;40.47;99769.16;5015019;28;19983;-89
2022/07/17 06:49:53;;;;;;;;;;;;;;;25.63;40.02;99764.88;4998116;28;19913;-91
2022/07/17 06:52:19;;;;;;;;;;;;;;;25.58;40.64;99763.19;4997890;28;19956;-89
2022/07/17 06:54:44;;;;;;;;;;;;;;;25.62;41.11;99760.50;4997729;28;19917;-90
2022/07/17 06:57:09;;;;;;;;;;;;;;;25.66;41.60;99753.13;5014590;28;19924;-91
2022/07/17 06:59:35;;;;;;;;;;;;;;;25.76;40.87;99760.84;4998347;28;20351;-90
2022/07/17 07:02:00;;;;;;;;;;;;;;;25.93;41.42;99761.59;4998536;28;19914;-90
2022/07/17 07:04:25;;;;;;;;;;;;;;;25.98;41.12;99767.63;4998810;28;19939;-91
2022/07/17 07:06:51;;;;;;;;;;;;;;;26.05;40.35;99758.69;5015193;28;20307;-91
2022/07/17 07:09:16;;;;;;;;;;;;;;;26.11;39.90;99767.50;4998498;28;20062;-89
2022/07/17 07:11:41;;;;;;;;;;;;;;;26.20;40.11;99771.59;5014465;28;19922;-92
2022/07/17 07:14:07;;;;;;;;;;;;;;;26.24;39.92;99779.97;4998272;28;19913;-91
2022/07/17 07:16:32;;;;;;;;;;;;;;;26.27;40.17;99772.91;4997990;28;19996;-88
2022/07/17 07:18:58;;;;;;;;;;;;;;;26.30;39.25;99775.75;5014056;28;19917;-90
2022/07/17 07:21:24;;;;;;;;;;;;;;;26.31;40.07;99769.06;4997579;28;19957;-92
2022/07/17 07:23:50;;;;;;;;;;;;;;;26.20;39.54;99784.63;4997959;28;19914;-91
2022/07/17 07:26:15;;;;;;;;;;;;;;;26.20;39.13;99779.88;4998044;28;19999;-91
2022/07/17 07:28:40;;;;;;;;;;;;;;;26.23;38.13;99774.81;4997634;28;20028;-90
2022/07/17 07:31:06;;;;;;;;;;;;;;;26.31;38.71;99774.56;4999125;28;20358;-92
2022/07/17 07:33:31;;;;;;;;;;;;;;;26.39;38.46;99768.03;4997596;28;19914;-89
2022/07/17 07:35:56;;;;;;;;;;;;;;;26.40;37.85;99780.69;4996811;28;19953;-89
2022/07/17 07:38:22;;;;;;;;;;;;;;;26.41;37.89;99770.44;4997122;28;19920;-90
2022/07/17 07:40:47;;;;;;;;;;;;;;;26.42;37.07;99772.84;4997738;28;19913;-90
2022/07/17 07:43:12;;;;;;;;;;;;;;;26.47;37.43;99777.25;4997373;28;19921;-89
2022/07/17 07:45:38;;;;;;;;;;;;;;;26.51;37.43;99772.59;4997390;28;20011;-91
2022/07/17 07:48:03;;;;;;;;;;;;;;;26.64;38.22;99776.00;4998172;28;19917;-91
2022/07/17 07:50:29;;;;;;;;;;;;;;;26.72;37.90;99783.25;4997970;28;20121;-92
2022/07/17 07:52:54;;;;;;;;;;;;;;;26.87;37.38;99787.06;4997142;28;19913;-90
2022/07/17 07:55:21;;;;;;;;;;;;;;;26.79;37.61;99793.63;4996827;28;19960;-91
2022/07/17 07:57:46;;;;;;;;;;;;;;;26.83;37.25;99785.41;4997175;28;19917;-91
2022/07/17 08:00:11;;;;;;;;;;;;;;;26.96;37.62;99797.91;4997293;28;19976;-91
2022/07/17 08:02:37;;;;;;;;;;;;;;;27.05;37.02;99784.63;4997365;28;19913;-91
2022/07/17 08:05:02;;;;;;;;;;;;;;;27.03;36.46;99795.25;4996843;28;20399;-91
2022/07/17 08:07:30;;;;;;;;;;;;;;;27.17;35.03;99794.69;4997184;28;19914;-92
2022/07/17 08:09:58;;;;;;;;;;;;;;;27.20;33.55;99800.25;4997494;28;19914;-93
2022/07/17 08:12:23;;;;;;;;;;;;;;;27.24;33.81;99800.34;4996869;28;19998;-93
2022/07/17 08:14:49;;;;;;;;;;;;;;;27.37;34.32;99787.09;4997490;28;19917;-92
2022/07/17 08:17:17;;;;;;;;;;;;;;;27.50;33.99;99801.56;4997843;28;19917;-94
2022/07/17 08:19:42;;;;;;;;;;;;;;;27.39;33.53;99804.94;4997568;28;19914;-93
2022/07/17 08:22:07;;;;;;;;;;;;;;;27.42;33.77;99793.13;4997497;28;19921;-93
2022/07/17 08:24:33;;;;;;;;;;;;;;;27.46;32.37;99795.16;4998522;28;20029;-92
2022/07/17 08:26:58;;;;;;;;;;;;;;;27.46;33.87;99795.94;4997755;28;19921;-94
2022/07/17 08:29:23;;;;;;;;;;;;;;;27.63;33.31;99793.81;4997429;28;19925;-93
2022/07/17 08:31:49;;;;;;;;;;;;;;;27.67;31.09;99786.38;4996864;28;19959;-94
2022/07/17 08:34:15;;;;;;;;;;;;;;;27.71;29.08;99792.75;4996880;28;20295;-93
2022/07/17 08:36:40;;;;;;;;;;;;;;;27.77;28.47;99788.50;4996942;28;19913;-93
2022/07/17 08:39:06;;;;;;;;;;;;;;;27.86;28.95;99786.25;4997420;28;20008;-94
2022/07/17 08:41:36;;;;;;;;;;;;;;;28.00;29.76;99785.66;4996938;28;20008;-94
2022/07/17 08:44:02;;;;;;;;;;;;;;;28.07;30.41;99784.94;4997481;28;20427;-91
2022/07/17 08:46:27;;;;;;;;;;;;;;;28.09;29.43;99772.31;4996403;28;19965;-91
2022/07/17 08:48:54;;;;;;;;;;;;;;;28.19;28.24;99779.94;4996245;28;20475;-92
2022/07/17 08:51:20;;;;;;;;;;;;;;;28.20;27.60;99789.84;4997712;28;19920;-92
2022/07/17 08:53:45;;;;;;;;;;;;;;;28.21;28.19;99782.34;4996918;28;19913;-92
2022/07/17 08:56:11;;;;;;;;;;;;;;;28.12;28.81;99777.09;4996563;28;19964;-91
2022/07/17 08:58:39;;;;;;;;;;;;;;;28.26;28.87;99773.69;4996655;28;19922;-90
2022/07/17 09:01:04;;;;;;;;;;;;;;;28.16;27.61;99775.19;4995939;28;19917;-93
2022/07/17 09:03:29;;;;;;;;;;;;;;;28.35;27.39;99778.94;4996120;28;19979;-91
2022/07/17 09:05:55;;;;;;;;;;;;;;;28.48;27.69;99780.25;4995947;28;20367;-91
2022/07/17 09:08:21;;;;;;;;;;;;;;;28.61;27.14;99784.38;4996440;28;19913;-91
2022/07/17 09:10:46;;;;;;;;;;;;;;;28.49;27.65;99787.41;4995711;28;19917;-90
2022/07/17 09:13:18;;;;;;;;;;;;;;;28.64;27.62;99793.91;4995801;28;19945;-91
2022/07/17 09:15:44;;;;;;;;;;;;;;;28.54;28.04;99777.97;5012478;28;20335;-93
2022/07/17 09:18:09;;;;;;;;;;;;;;;28.64;27.73;99779.25;4996595;28;20003;-92
2022/07/17 09:20:34;;;;;;;;;;;;;;;28.55;26.42;99776.78;4997986;28;19914;-93
2022/07/17 09:23:01;;;;;;;;;;;;;;;28.51;27.09;99773.19;5001528;28;19913;-90
2022/07/17 09:25:52;;;;;;;;;;;;;;;28.60;28.38;99774.47;5001495;28;19917;-95
2022/07/17 09:28:18;;;;;;;;;;;;;;;28.76;27.50;99771.47;5014461;28;19913;-95
2022/07/17 09:30:45;;;;;;;;;;;;;;;28.89;27.70;99777.53;5004369;28;20421;-92
2022/07/17 09:33:28;;;;;;;;;;;;;;;29.02;27.34;99770.50;5016044;28;20311;-91
2022/07/17 09:35:54;;;;;;;;;;;;;;;29.21;25.28;99777.00;5000404;28;20342;-91
2022/07/17 09:38:26;;;;;;;;;;;;;;;29.15;26.07;99761.91;5003362;28;19981;-93
2022/07/17 09:41:09;;;;;;;;;;;;;;;29.26;26.37;99776.66;5021424;28;20408;-93
2022/07/17 09:43:38;;;;;;;;;;;;;;;29.28;25.64;99768.75;5005659;28;19985;-92
2022/07/17 09:46:04;;;;;;;;;;;;;;;29.39;25.25;99760.50;5021706;28;19967;-94
2022/07/17 09:48:29;;;;;;;;;;;;;;;29.49;25.66;99770.88;5001084;28;19918;-93
2022/07/17 09:50:54;;;;;;;;;;;;;;;29.48;25.81;99769.25;5000625;28;19972;-93
2022/07/17 09:53:20;;;;;;;;;;;;;;;29.54;25.19;99767.72;5000143;28;19913;-93
2022/07/17 09:55:45;;;;;;;;;;;;;;;29.55;25.40;99757.41;5016288;28;20383;-92
2022/07/17 09:58:10;;;;;;;;;;;;;;;29.67;25.41;99759.06;4999551;28;19933;-94
2022/07/17 10:00:36;;;;;;;;;;;;;;;29.64;25.19;99752.31;5000788;28;20005;-93
2022/07/17 10:03:01;;;;;;;;;;;;;;;29.77;24.36;99769.44;5000122;28;20016;-94
2022/07/17 10:05:26;;;;;;;;;;;;;;;29.64;24.20;99751.53;4999435;28;20370;-93
2022/07/17 10:07:52;;;;;;;;;;;;;;;29.68;24.39;99767.00;5000432;28;19964;-93
2022/07/17 10:10:17;;;;;;;;;;;;;;;29.71;24.48;99762.69;5016054;28;19917;-93
2022/07/17 10:12:43;;;;;;;;;;;;;;;29.68;24.53;99752.34;4999646;28;19921;-93
2022/07/17 10:15:09;;;;;;;;;;;;;;;29.70;24.63;99742.47;5000505;28;20360;-92
2022/07/17 10:17:34;;;;;;;;;;;;;;;29.75;24.42;99755.16;5015735;28;19914;-94
2022/07/17 10:20:02;;;;;;;;;;;;;;;29.78;25.09;99741.31;5016082;28;20284;-93
2022/07/17 10:22:27;;;;;;;;;;;;;;;29.86;25.12;99746.88;5016258;28;19952;-93
2022/07/17 10:24:53;;;;;;;;;;;;;;;29.93;24.60;99753.28;5016458;28;19972;-93
2022/07/17 10:27:25;;;;;;;;;;;;;;;29.80;23.64;99752.00;4999476;28;20380;-92
2022/07/17 10:30:05;;;;;;;;;;;;;;;29.85;24.01;99750.84;5015765;28;19913;-92
2022/07/17 10:32:30;;;;;;;;;;;;;;;29.92;23.32;99748.88;5019226;28;19913;-93
2022/07/17 10:34:59;;;;;;;;;;;;;;;29.77;24.27;99738.91;4999913;28;20426;-93
2022/07/17 10:37:26;;;;;;;;;;;;;;;29.93;23.95;99733.84;5015212;28;20351;-94
2022/07/17 10:40:12;;;;;;;;;;;;;;;29.94;24.28;99738.19;4999629;28;19914;-94
2022/07/17 10:42:41;;;;;;;;;;;;;;;30.00;24.83;99731.06;5014712;28;19921;-93
2022/07/17 10:45:07;;;;;;;;;;;;;;;29.98;24.39;99736.22;4999556;28;20298;-94
2022/07/17 10:47:46;;;;;;;;;;;;;;;30.01;23.89;99724.34;4998438;28;20006;-93
2022/07/17 10:50:12;;;;;;;;;;;;;;;30.18;23.97;99725.56;4998859;28;19925;-93
2022/07/17 10:52:37;;;;;;;;;;;;;;;30.19;23.68;99723.59;4998589;28;20296;-93
2022/07/17 10:55:04;;;;;;;;;;;;;;;30.24;23.62;99717.66;4998896;28;19964;-94
2022/07/17 10:57:30;;;;;;;;;;;;;;;30.28;23.56;99725.97;4998991;28;19917;-92
2022/07/17 10:59:56;;;;;;;;;;;;;;;30.23;23.79;99719.63;4998939;28;19913;-94
2022/07/17 11:02:27;;;;;;;;;;;;;;;30.42;24.26;99712.97;4999809;28;19920;-93
2022/07/17 11:04:53;;;;;;;;;;;;;;;30.38;24.26;99719.69;4998979;28;19917;-94
2022/07/17 11:07:18;;;;;;;;;;;;;;;30.36;23.50;99717.31;4998582;28;20353;-92
2022/07/17 11:09:47;;;;;;;;;;;;;;;30.46;23.54;99721.28;4999182;28;19964;-94
2022/07/17 11:12:13;;;;;;;;;;;;;;;30.42;23.78;99729.63;4998572;28;19975;-93
2022/07/17 11:14:38;;;;;;;;;;;;;;;30.43;23.52;99727.63;4998273;28;20387;-92
2022/07/17 11:17:04;;;;;;;;;;;;;;;30.47;22.70;99719.31;4997956;28;19923;-93
2022/07/17 11:19:38;;;;;;;;;;;;;;;30.56;22.46;99711.38;4999538;28;20056;-94
2022/07/17 11:22:09;;;;;;;;;;;;;;;30.64;22.96;99707.41;4999132;28;20387;-93
2022/07/17 11:24:35;;;;;;;;;;;;;;;30.72;22.80;99708.22;4998884;28;19921;-93
2022/07/17 11:27:00;;;;;;;;;;;;;;;30.86;22.52;99708.22;5000004;28;19949;-94
2022/07/17 11:29:25;;;;;;;;;;;;;;;30.90;21.76;99695.13;4997820;28;19920;-94
2022/07/17 11:31:54;;;;;;;;;;;;;;;31.05;21.77;99709.81;5014741;28;19960;-92
2022/07/17 11:34:20;;;;;;;;;;;;;;;30.95;22.01;99705.06;4998637;28;19914;-93
2022/07/17 11:36:45;;;;;;;;;;;;;;;31.10;21.47;99689.91;4998589;28;19936;-92
2022/07/17 11:39:14;;;;;;;;;;;;;;;31.26;21.33;99683.16;4997934;28;19917;-94
2022/07/17 11:41:47;;;;;;;;;;;;;;;31.37;21.53;99686.69;5014405;28;19914;-91
2022/07/17 11:44:17;;;;;;;;;;;;;;;31.44;21.79;99689.47;5014601;28;19961;-92
2022/07/17 11:46:42;;;;;;;;;;;;;;;31.49;20.16;99686.28;4998078;28;19913;-93
2022/07/17 11:49:08;;;;;;;;;;;;;;;31.61;20.46;99682.25;4998087;28;19914;-93
2022/07/17 11:51:37;;;;;;;;;;;;;;;31.68;20.72;99673.84;4998446;28;19925;-92
2022/07/17 11:54:03;;;;;;;;;;;;;;;31.69;20.41;99674.66;4998127;28;19918;-92
2022/07/17 11:56:28;;;;;;;;;;;;;;;31.75;20.15;99668.28;4998778;28;19920;-92
2022/07/17 11:58:54;;;;;;;;;;;;;;;31.86;19.94;99667.44;4997253;28;19925;-93
2022/07/17 12:01:19;;;;;;;;;;;;;;;31.85;19.77;99666.59;4998790;28;20020;-92
2022/07/17 12:03:44;;;;;;;;;;;;;;;31.94;19.64;99657.84;4998241;28;19914;-94
2022/07/17 12:06:09;;;;;;;;;;;;;;;31.94;19.61;99675.31;4998655;28;19917;-91
2022/07/17 12:08:35;;;;;;;;;;;;;;;31.88;20.00;99667.81;5014141;28;19913;-92
2022/07/17 12:11:01;;;;;;;;;;;;;;;31.91;19.87;99672.56;4996941;28;19918;-92
2022/07/17 12:13:40;;;;;;;;;;;;;;;31.86;20.08;99664.63;5014066;28;19921;-92
2022/07/17 12:16:17;;;;;;;;;;;;;;;31.95;19.67;99651.84;5000564;28;20388;-92
2022/07/17 12:18:43;;;;;;;;;;;;;;;32.15;20.42;99665.28;4997580;28;19913;-93
2022/07/17 12:21:08;;;;;;;;;;;;;;;32.02;20.53;99656.59;4997394;28;20055;-93
2022/07/17 12:23:35;;;;;;;;;;;;;;;32.07;20.31;99653.38;4997563;28;19917;-93
2022/07/17 12:26:07;;;;;;;;;;;;;;;32.02;20.59;99651.03;4996931;28;20011;-92
2022/07/17 12:28:33;;;;;;;;;;;;;;;31.96;19.73;99645.06;4997118;28;19920;-93
2022/07/17 12:30:58;;;;;;;;;;;;;;;31.79;20.16;99648.75;4997792;28;19913;-93
2022/07/17 12:33:23;;;;;;;;;;;;;;;31.93;20.23;99650.66;4997818;28;19917;-93
2022/07/17 12:35:49;;;;;;;;;;;;;;;31.95;20.35;99640.69;4997897;28;19913;-94
2022/07/17 12:38:14;;;;;;;;;;;;;;;31.98;20.42;99648.25;4996698;28;19918;-92
2022/07/17 12:40:40;;;;;;;;;;;;;;;32.19;21.07;99641.75;4997717;28;20002;-95
2022/07/17 12:43:05;;;;;;;;;;;;;;;32.21;20.21;99642.16;4997394;28;19918;-94